Terminal Aerodrome Forecast
Issued by NWS

Home | Current Version | Previous Version | Text Only | Print | Product List | Glossary On
Versions: 1 2 3 4 5 6 7 8 9 10 11 12
000
FTUS42 TJSJ 292340
TAFJBQ
TAF
TJBQ 292340Z 3000/3024 09006KT P6SM FEW035 OVC080
     FM301500 06008KT P6SM VCSH SCT022 BKN040
     FM302300 VRB05KT P6SM SCT025 BKN070
      AMD NOT SKED 3002/3011=

USA.gov is the U.S. government's official web portal to all federal, state and local government web resources and services.